sensor_id;sensor_type;location;lat;lon;timestamp;P1;durP1;ratioP1;P2;durP2;ratioP2
11854;SDS011;5987;53.140;8.904;2022-12-18T00:02:27;46.53;;;26.83;;
11854;SDS011;5987;53.140;8.904;2022-12-18T00:05:30;41.53;;;25.50;;
11854;SDS011;5987;53.140;8.904;2022-12-18T00:08:34;44.40;;;25.87;;
11854;SDS011;5987;53.140;8.904;2022-12-18T00:11:39;36.30;;;23.77;;
11854;SDS011;5987;53.140;8.904;2022-12-18T00:14:43;41.03;;;23.90;;
11854;SDS011;5987;53.140;8.904;2022-12-18T00:17:47;43.40;;;25.07;;
11854;SDS011;5987;53.140;8.904;2022-12-18T00:20:50;41.00;;;24.97;;
11854;SDS011;5987;53.140;8.904;2022-12-18T00:23:54;41.17;;;25.07;;
11854;SDS011;5987;53.140;8.904;2022-12-18T00:27:00;44.20;;;25.73;;
11854;SDS011;5987;53.140;8.904;2022-12-18T00:30:04;46.80;;;26.07;;
11854;SDS011;5987;53.140;8.904;2022-12-18T00:33:10;44.53;;;24.37;;
11854;SDS011;5987;53.140;8.904;2022-12-18T00:36:14;42.07;;;25.43;;
11854;SDS011;5987;53.140;8.904;2022-12-18T00:39:20;43.90;;;25.90;;
11854;SDS011;5987;53.140;8.904;2022-12-18T00:42:25;39.77;;;24.43;;
11854;SDS011;5987;53.140;8.904;2022-12-18T00:45:46;45.43;;;25.67;;
11854;SDS011;5987;53.140;8.904;2022-12-18T00:48:50;44.27;;;23.87;;
11854;SDS011;5987;53.140;8.904;2022-12-18T00:51:54;43.47;;;25.90;;
11854;SDS011;5987;53.140;8.904;2022-12-18T00:54:58;56.30;;;32.83;;
11854;SDS011;5987;53.140;8.904;2022-12-18T00:58:08;55.43;;;30.40;;
11854;SDS011;5987;53.140;8.904;2022-12-18T01:01:13;49.07;;;29.37;;
11854;SDS011;5987;53.140;8.904;2022-12-18T01:04:17;43.87;;;25.40;;
11854;SDS011;5987;53.140;8.904;2022-12-18T01:07:21;36.60;;;23.13;;
11854;SDS011;5987;53.140;8.904;2022-12-18T01:10:25;41.03;;;26.87;;
11854;SDS011;5987;53.140;8.904;2022-12-18T01:13:30;52.53;;;31.53;;
11854;SDS011;5987;53.140;8.904;2022-12-18T01:16:34;49.60;;;32.50;;
11854;SDS011;5987;53.140;8.904;2022-12-18T01:19:38;46.00;;;28.70;;
11854;SDS011;5987;53.140;8.904;2022-12-18T01:22:41;46.80;;;27.10;;
11854;SDS011;5987;53.140;8.904;2022-12-18T01:25:45;42.53;;;25.63;;
11854;SDS011;5987;53.140;8.904;2022-12-18T01:28:50;39.80;;;22.77;;
11854;SDS011;5987;53.140;8.904;2022-12-18T01:31:54;36.13;;;21.93;;
11854;SDS011;5987;53.140;8.904;2022-12-18T01:34:58;41.57;;;23.33;;
11854;SDS011;5987;53.140;8.904;2022-12-18T01:38:02;34.93;;;21.57;;
11854;SDS011;5987;53.140;8.904;2022-12-18T01:41:07;35.77;;;21.80;;
11854;SDS011;5987;53.140;8.904;2022-12-18T01:47:58;36.93;;;22.30;;
11854;SDS011;5987;53.140;8.904;2022-12-18T01:51:06;36.90;;;21.93;;
11854;SDS011;5987;53.140;8.904;2022-12-18T01:54:13;36.53;;;20.43;;
11854;SDS011;5987;53.140;8.904;2022-12-18T01:57:17;30.10;;;18.97;;
11854;SDS011;5987;53.140;8.904;2022-12-18T02:00:23;33.13;;;19.93;;
11854;SDS011;5987;53.140;8.904;2022-12-18T02:03:28;27.57;;;17.97;;
11854;SDS011;5987;53.140;8.904;2022-12-18T02:06:32;38.40;;;20.13;;
11854;SDS011;5987;53.140;8.904;2022-12-18T02:09:45;34.07;;;20.17;;
11854;SDS011;5987;53.140;8.904;2022-12-18T02:12:55;34.87;;;20.47;;
11854;SDS011;5987;53.140;8.904;2022-12-18T02:16:13;37.77;;;19.37;;
11854;SDS011;5987;53.140;8.904;2022-12-18T02:19:35;31.50;;;18.43;;
11854;SDS011;5987;53.140;8.904;2022-12-18T02:23:03;34.77;;;19.93;;
11854;SDS011;5987;53.140;8.904;2022-12-18T02:26:20;32.50;;;19.23;;
11854;SDS011;5987;53.140;8.904;2022-12-18T02:29:32;31.87;;;19.50;;
11854;SDS011;5987;53.140;8.904;2022-12-18T02:32:42;39.90;;;20.23;;
11854;SDS011;5987;53.140;8.904;2022-12-18T02:35:52;31.70;;;18.13;;
11854;SDS011;5987;53.140;8.904;2022-12-18T02:38:59;35.77;;;19.17;;
11854;SDS011;5987;53.140;8.904;2022-12-18T02:42:08;30.37;;;17.10;;
11854;SDS011;5987;53.140;8.904;2022-12-18T02:45:13;33.57;;;18.60;;
11854;SDS011;5987;53.140;8.904;2022-12-18T02:48:17;35.43;;;19.33;;
11854;SDS011;5987;53.140;8.904;2022-12-18T02:51:29;29.47;;;17.83;;
11854;SDS011;5987;53.140;8.904;2022-12-18T02:54:43;34.13;;;18.53;;
11854;SDS011;5987;53.140;8.904;2022-12-18T02:58:09;34.63;;;19.13;;
11854;SDS011;5987;53.140;8.904;2022-12-18T03:01:21;31.53;;;18.07;;
11854;SDS011;5987;53.140;8.904;2022-12-18T03:04:37;27.03;;;15.70;;
11854;SDS011;5987;53.140;8.904;2022-12-18T03:07:49;24.63;;;15.50;;
11854;SDS011;5987;53.140;8.904;2022-12-18T03:11:01;25.67;;;15.23;;
11854;SDS011;5987;53.140;8.904;2022-12-18T03:14:09;26.60;;;17.27;;
11854;SDS011;5987;53.140;8.904;2022-12-18T03:17:18;34.00;;;19.47;;
11854;SDS011;5987;53.140;8.904;2022-12-18T03:20:28;40.33;;;20.90;;
11854;SDS011;5987;53.140;8.904;2022-12-18T03:23:38;32.63;;;19.23;;
11854;SDS011;5987;53.140;8.904;2022-12-18T03:26:50;30.47;;;16.87;;
11854;SDS011;5987;53.140;8.904;2022-12-18T03:30:05;25.70;;;14.73;;
11854;SDS011;5987;53.140;8.904;2022-12-18T03:33:15;30.37;;;17.03;;
11854;SDS011;5987;53.140;8.904;2022-12-18T03:36:26;28.40;;;14.87;;
11854;SDS011;5987;53.140;8.904;2022-12-18T03:39:33;27.10;;;16.17;;
11854;SDS011;5987;53.140;8.904;2022-12-18T03:42:39;26.83;;;16.27;;
11854;SDS011;5987;53.140;8.904;2022-12-18T03:45:56;26.70;;;15.63;;
11854;SDS011;5987;53.140;8.904;2022-12-18T03:49:08;21.33;;;13.27;;
11854;SDS011;5987;53.140;8.904;2022-12-18T03:52:20;26.23;;;15.13;;
11854;SDS011;5987;53.140;8.904;2022-12-18T03:55:32;22.53;;;14.70;;
11854;SDS011;5987;53.140;8.904;2022-12-18T03:58:38;24.50;;;14.87;;
11854;SDS011;5987;53.140;8.904;2022-12-18T04:01:48;24.63;;;14.00;;
11854;SDS011;5987;53.140;8.904;2022-12-18T04:04:57;24.30;;;15.07;;
11854;SDS011;5987;53.140;8.904;2022-12-18T04:08:06;25.17;;;14.33;;
11854;SDS011;5987;53.140;8.904;2022-12-18T04:11:10;19.37;;;12.33;;
11854;SDS011;5987;53.140;8.904;2022-12-18T04:14:14;20.27;;;12.03;;
11854;SDS011;5987;53.140;8.904;2022-12-18T04:17:20;21.63;;;12.63;;
11854;SDS011;5987;53.140;8.904;2022-12-18T04:20:24;20.67;;;12.80;;
11854;SDS011;5987;53.140;8.904;2022-12-18T04:23:28;20.57;;;12.20;;
11854;SDS011;5987;53.140;8.904;2022-12-18T04:26:31;22.50;;;12.43;;
11854;SDS011;5987;53.140;8.904;2022-12-18T04:29:35;20.23;;;12.07;;
11854;SDS011;5987;53.140;8.904;2022-12-18T04:32:40;19.10;;;11.43;;
11854;SDS011;5987;53.140;8.904;2022-12-18T04:35:51;21.10;;;11.43;;
11854;SDS011;5987;53.140;8.904;2022-12-18T04:38:54;20.87;;;12.10;;
11854;SDS011;5987;53.140;8.904;2022-12-18T04:41:58;20.83;;;11.63;;
11854;SDS011;5987;53.140;8.904;2022-12-18T04:45:02;15.60;;;11.77;;
11854;SDS011;5987;53.140;8.904;2022-12-18T04:48:08;16.43;;;11.00;;
11854;SDS011;5987;53.140;8.904;2022-12-18T04:51:12;19.87;;;12.60;;
11854;SDS011;5987;53.140;8.904;2022-12-18T04:54:15;23.80;;;12.47;;
11854;SDS011;5987;53.140;8.904;2022-12-18T04:57:23;16.80;;;11.83;;
11854;SDS011;5987;53.140;8.904;2022-12-18T05:00:27;18.20;;;10.67;;
11854;SDS011;5987;53.140;8.904;2022-12-18T05:03:32;16.63;;;11.00;;
11854;SDS011;5987;53.140;8.904;2022-12-18T05:06:38;18.60;;;11.23;;
11854;SDS011;5987;53.140;8.904;2022-12-18T05:09:41;22.23;;;12.87;;
11854;SDS011;5987;53.140;8.904;2022-12-18T05:12:45;19.53;;;11.50;;
11854;SDS011;5987;53.140;8.904;2022-12-18T05:16:02;19.77;;;12.47;;
11854;SDS011;5987;53.140;8.904;2022-12-18T05:19:08;20.40;;;12.63;;
11854;SDS011;5987;53.140;8.904;2022-12-18T05:22:12;30.20;;;16.07;;
11854;SDS011;5987;53.140;8.904;2022-12-18T05:25:15;40.83;;;22.73;;
11854;SDS011;5987;53.140;8.904;2022-12-18T05:28:21;69.20;;;35.13;;
11854;SDS011;5987;53.140;8.904;2022-12-18T05:31:26;77.03;;;42.03;;
11854;SDS011;5987;53.140;8.904;2022-12-18T05:34:36;49.63;;;29.40;;
11854;SDS011;5987;53.140;8.904;2022-12-18T05:37:40;60.67;;;35.00;;
11854;SDS011;5987;53.140;8.904;2022-12-18T05:40:44;31.37;;;16.97;;
11854;SDS011;5987;53.140;8.904;2022-12-18T05:43:47;22.67;;;13.40;;
11854;SDS011;5987;53.140;8.904;2022-12-18T05:46:51;18.33;;;11.23;;
11854;SDS011;5987;53.140;8.904;2022-12-18T05:49:56;17.00;;;11.43;;
11854;SDS011;5987;53.140;8.904;2022-12-18T05:53:00;15.90;;;10.77;;
11854;SDS011;5987;53.140;8.904;2022-12-18T05:56:04;16.23;;;10.90;;
11854;SDS011;5987;53.140;8.904;2022-12-18T05:59:10;22.67;;;13.70;;
11854;SDS011;5987;53.140;8.904;2022-12-18T06:02:14;21.87;;;13.60;;
11854;SDS011;5987;53.140;8.904;2022-12-18T06:05:20;19.60;;;12.77;;
11854;SDS011;5987;53.140;8.904;2022-12-18T06:08:23;21.67;;;12.73;;
11854;SDS011;5987;53.140;8.904;2022-12-18T06:11:27;18.27;;;11.40;;
11854;SDS011;5987;53.140;8.904;2022-12-18T06:14:31;22.63;;;11.73;;
11854;SDS011;5987;53.140;8.904;2022-12-18T06:17:34;15.20;;;10.37;;
11854;SDS011;5987;53.140;8.904;2022-12-18T06:20:40;17.53;;;10.57;;
11854;SDS011;5987;53.140;8.904;2022-12-18T06:23:44;20.03;;;10.83;;
11854;SDS011;5987;53.140;8.904;2022-12-18T06:26:48;18.27;;;11.00;;
11854;SDS011;5987;53.140;8.904;2022-12-18T06:29:51;18.10;;;10.63;;
11854;SDS011;5987;53.140;8.904;2022-12-18T06:32:55;20.20;;;10.87;;
11854;SDS011;5987;53.140;8.904;2022-12-18T06:36:01;17.80;;;11.27;;
11854;SDS011;5987;53.140;8.904;2022-12-18T06:39:07;18.70;;;11.20;;
11854;SDS011;5987;53.140;8.904;2022-12-18T06:42:11;16.33;;;10.80;;
11854;SDS011;5987;53.140;8.904;2022-12-18T06:45:15;17.40;;;10.67;;
11854;SDS011;5987;53.140;8.904;2022-12-18T06:48:18;15.73;;;10.67;;
11854;SDS011;5987;53.140;8.904;2022-12-18T06:51:23;17.00;;;10.77;;
11854;SDS011;5987;53.140;8.904;2022-12-18T06:54:28;17.47;;;10.73;;
11854;SDS011;5987;53.140;8.904;2022-12-18T06:57:32;15.50;;;10.70;;
11854;SDS011;5987;53.140;8.904;2022-12-18T07:00:35;15.80;;;10.07;;
11854;SDS011;5987;53.140;8.904;2022-12-18T07:03:39;18.30;;;10.27;;
11854;SDS011;5987;53.140;8.904;2022-12-18T07:06:47;15.40;;;10.63;;
11854;SDS011;5987;53.140;8.904;2022-12-18T07:09:50;15.87;;;11.13;;
11854;SDS011;5987;53.140;8.904;2022-12-18T07:12:54;18.97;;;11.57;;
11854;SDS011;5987;53.140;8.904;2022-12-18T07:16:03;20.70;;;11.50;;
11854;SDS011;5987;53.140;8.904;2022-12-18T07:19:19;20.53;;;11.47;;
11854;SDS011;5987;53.140;8.904;2022-12-18T07:22:26;21.73;;;12.83;;
11854;SDS011;5987;53.140;8.904;2022-12-18T07:25:30;20.07;;;12.13;;
11854;SDS011;5987;53.140;8.904;2022-12-18T07:28:36;22.10;;;12.70;;
11854;SDS011;5987;53.140;8.904;2022-12-18T07:31:42;19.60;;;12.03;;
11854;SDS011;5987;53.140;8.904;2022-12-18T07:34:46;21.83;;;11.13;;
11854;SDS011;5987;53.140;8.904;2022-12-18T07:37:51;15.63;;;10.77;;
11854;SDS011;5987;53.140;8.904;2022-12-18T07:40:54;20.70;;;11.83;;
11854;SDS011;5987;53.140;8.904;2022-12-18T07:44:03;19.77;;;11.60;;
11854;SDS011;5987;53.140;8.904;2022-12-18T07:47:07;18.23;;;11.43;;
11854;SDS011;5987;53.140;8.904;2022-12-18T07:50:13;19.33;;;12.40;;
11854;SDS011;5987;53.140;8.904;2022-12-18T07:53:18;19.40;;;11.17;;
11854;SDS011;5987;53.140;8.904;2022-12-18T07:56:22;16.23;;;10.90;;
11854;SDS011;5987;53.140;8.904;2022-12-18T07:59:28;18.57;;;11.80;;
11854;SDS011;5987;53.140;8.904;2022-12-18T08:02:32;18.87;;;10.93;;
11854;SDS011;5987;53.140;8.904;2022-12-18T08:05:36;17.33;;;9.90;;
11854;SDS011;5987;53.140;8.904;2022-12-18T08:08:41;17.23;;;11.20;;
11854;SDS011;5987;53.140;8.904;2022-12-18T08:11:44;17.43;;;10.37;;
11854;SDS011;5987;53.140;8.904;2022-12-18T08:14:48;17.43;;;11.10;;
11854;SDS011;5987;53.140;8.904;2022-12-18T08:17:55;22.20;;;12.33;;
11854;SDS011;5987;53.140;8.904;2022-12-18T08:21:07;18.23;;;12.23;;
11854;SDS011;5987;53.140;8.904;2022-12-18T08:24:13;18.97;;;12.13;;
11854;SDS011;5987;53.140;8.904;2022-12-18T08:27:17;21.17;;;11.93;;
11854;SDS011;5987;53.140;8.904;2022-12-18T08:30:30;21.00;;;12.17;;
11854;SDS011;5987;53.140;8.904;2022-12-18T08:33:34;19.83;;;12.10;;
11854;SDS011;5987;53.140;8.904;2022-12-18T08:36:39;17.23;;;11.77;;
11854;SDS011;5987;53.140;8.904;2022-12-18T08:39:44;21.17;;;12.03;;
11854;SDS011;5987;53.140;8.904;2022-12-18T08:42:48;16.37;;;10.77;;
11854;SDS011;5987;53.140;8.904;2022-12-18T08:46:09;15.30;;;10.13;;
11854;SDS011;5987;53.140;8.904;2022-12-18T08:49:13;21.23;;;10.83;;
11854;SDS011;5987;53.140;8.904;2022-12-18T08:52:17;20.00;;;11.37;;
11854;SDS011;5987;53.140;8.904;2022-12-18T08:55:23;22.70;;;12.27;;
11854;SDS011;5987;53.140;8.904;2022-12-18T08:58:26;17.27;;;10.80;;
11854;SDS011;5987;53.140;8.904;2022-12-18T09:01:30;14.70;;;10.30;;
11854;SDS011;5987;53.140;8.904;2022-12-18T09:04:35;17.70;;;11.90;;
11854;SDS011;5987;53.140;8.904;2022-12-18T09:07:41;18.37;;;11.17;;
11854;SDS011;5987;53.140;8.904;2022-12-18T09:10:47;18.23;;;10.87;;
11854;SDS011;5987;53.140;8.904;2022-12-18T09:13:53;18.47;;;11.23;;
11854;SDS011;5987;53.140;8.904;2022-12-18T09:16:57;18.10;;;11.90;;
11854;SDS011;5987;53.140;8.904;2022-12-18T09:20:01;17.83;;;11.73;;
11854;SDS011;5987;53.140;8.904;2022-12-18T09:23:05;17.83;;;11.53;;
11854;SDS011;5987;53.140;8.904;2022-12-18T09:26:11;14.67;;;10.53;;
11854;SDS011;5987;53.140;8.904;2022-12-18T09:29:15;18.40;;;10.93;;
11854;SDS011;5987;53.140;8.904;2022-12-18T09:32:19;20.07;;;11.17;;
11854;SDS011;5987;53.140;8.904;2022-12-18T09:35:23;17.70;;;11.23;;
11854;SDS011;5987;53.140;8.904;2022-12-18T09:38:26;18.60;;;10.17;;
11854;SDS011;5987;53.140;8.904;2022-12-18T09:41:35;18.17;;;11.30;;
11854;SDS011;5987;53.140;8.904;2022-12-18T09:44:48;16.17;;;10.80;;
11854;SDS011;5987;53.140;8.904;2022-12-18T09:47:55;16.67;;;11.40;;
11854;SDS011;5987;53.140;8.904;2022-12-18T09:51:05;21.13;;;11.00;;
11854;SDS011;5987;53.140;8.904;2022-12-18T09:54:18;19.10;;;12.30;;
11854;SDS011;5987;53.140;8.904;2022-12-18T09:57:29;18.27;;;13.53;;
11854;SDS011;5987;53.140;8.904;2022-12-18T10:00:38;21.60;;;12.87;;
11854;SDS011;5987;53.140;8.904;2022-12-18T10:03:46;20.30;;;12.57;;
11854;SDS011;5987;53.140;8.904;2022-12-18T10:06:52;28.80;;;18.13;;
11854;SDS011;5987;53.140;8.904;2022-12-18T10:10:13;23.73;;;14.77;;
11854;SDS011;5987;53.140;8.904;2022-12-18T10:13:39;19.53;;;14.60;;
11854;SDS011;5987;53.140;8.904;2022-12-18T10:16:55;22.07;;;13.97;;
11854;SDS011;5987;53.140;8.904;2022-12-18T10:20:16;16.00;;;8.60;;
11854;SDS011;5987;53.140;8.904;2022-12-18T10:23:32;22.07;;;14.13;;
11854;SDS011;5987;53.140;8.904;2022-12-18T10:26:48;16.63;;;11.70;;
11854;SDS011;5987;53.140;8.904;2022-12-18T10:29:56;22.47;;;14.60;;
11854;SDS011;5987;53.140;8.904;2022-12-18T10:33:00;19.87;;;14.00;;
11854;SDS011;5987;53.140;8.904;2022-12-18T10:36:06;16.03;;;10.97;;
11854;SDS011;5987;53.140;8.904;2022-12-18T10:39:17;19.60;;;13.07;;
11854;SDS011;5987;53.140;8.904;2022-12-18T10:42:23;14.73;;;10.27;;
11854;SDS011;5987;53.140;8.904;2022-12-18T10:45:29;20.07;;;10.30;;
11854;SDS011;5987;53.140;8.904;2022-12-18T10:48:34;18.40;;;10.20;;
11854;SDS011;5987;53.140;8.904;2022-12-18T10:51:50;12.43;;;8.53;;
11854;SDS011;5987;53.140;8.904;2022-12-18T10:55:12;11.87;;;8.70;;
11854;SDS011;5987;53.140;8.904;2022-12-18T10:58:24;15.73;;;10.13;;
11854;SDS011;5987;53.140;8.904;2022-12-18T11:01:46;15.17;;;9.33;;
11854;SDS011;5987;53.140;8.904;2022-12-18T11:04:56;16.03;;;9.60;;
11854;SDS011;5987;53.140;8.904;2022-12-18T11:08:00;15.17;;;9.67;;
11854;SDS011;5987;53.140;8.904;2022-12-18T11:11:07;17.33;;;9.57;;
11854;SDS011;5987;53.140;8.904;2022-12-18T11:14:22;14.07;;;8.27;;
11854;SDS011;5987;53.140;8.904;2022-12-18T11:17:31;14.70;;;8.40;;
11854;SDS011;5987;53.140;8.904;2022-12-18T11:20:38;17.70;;;9.93;;
11854;SDS011;5987;53.140;8.904;2022-12-18T11:23:45;13.20;;;9.00;;
11854;SDS011;5987;53.140;8.904;2022-12-18T11:26:53;16.60;;;9.27;;
11854;SDS011;5987;53.140;8.904;2022-12-18T11:30:07;13.20;;;8.03;;
11854;SDS011;5987;53.140;8.904;2022-12-18T11:33:25;12.87;;;8.03;;
11854;SDS011;5987;53.140;8.904;2022-12-18T11:36:30;12.27;;;7.23;;
11854;SDS011;5987;53.140;8.904;2022-12-18T11:39:40;12.07;;;7.83;;
11854;SDS011;5987;53.140;8.904;2022-12-18T11:42:53;14.53;;;7.77;;
11854;SDS011;5987;53.140;8.904;2022-12-18T11:46:06;12.57;;;8.37;;
11854;SDS011;5987;53.140;8.904;2022-12-18T11:49:22;12.30;;;8.60;;
11854;SDS011;5987;53.140;8.904;2022-12-18T11:52:36;18.40;;;8.37;;
11854;SDS011;5987;53.140;8.904;2022-12-18T11:55:47;13.17;;;8.53;;
11854;SDS011;5987;53.140;8.904;2022-12-18T11:59:06;17.10;;;8.50;;
11854;SDS011;5987;53.140;8.904;2022-12-18T12:02:26;9.97;;;7.30;;
11854;SDS011;5987;53.140;8.904;2022-12-18T12:05:54;12.90;;;7.80;;
11854;SDS011;5987;53.140;8.904;2022-12-18T12:09:17;11.40;;;7.97;;
11854;SDS011;5987;53.140;8.904;2022-12-18T12:12:34;13.20;;;7.90;;
11854;SDS011;5987;53.140;8.904;2022-12-18T12:16:00;14.30;;;8.27;;
11854;SDS011;5987;53.140;8.904;2022-12-18T12:19:21;11.37;;;7.60;;
11854;SDS011;5987;53.140;8.904;2022-12-18T12:22:43;19.30;;;9.03;;
11854;SDS011;5987;53.140;8.904;2022-12-18T12:26:06;9.83;;;7.27;;
11854;SDS011;5987;53.140;8.904;2022-12-18T12:29:18;11.27;;;7.63;;
11854;SDS011;5987;53.140;8.904;2022-12-18T12:32:49;12.33;;;8.33;;
11854;SDS011;5987;53.140;8.904;2022-12-18T12:36:09;14.40;;;8.53;;
11854;SDS011;5987;53.140;8.904;2022-12-18T12:39:27;15.77;;;8.50;;
11854;SDS011;5987;53.140;8.904;2022-12-18T12:42:38;14.83;;;9.53;;
11854;SDS011;5987;53.140;8.904;2022-12-18T12:46:06;12.27;;;7.43;;
11854;SDS011;5987;53.140;8.904;2022-12-18T12:49:14;10.67;;;7.67;;
11854;SDS011;5987;53.140;8.904;2022-12-18T12:52:28;9.53;;;6.90;;
11854;SDS011;5987;53.140;8.904;2022-12-18T12:55:40;7.87;;;5.60;;
11854;SDS011;5987;53.140;8.904;2022-12-18T12:58:48;9.67;;;6.90;;
11854;SDS011;5987;53.140;8.904;2022-12-18T13:02:05;9.97;;;8.10;;
11854;SDS011;5987;53.140;8.904;2022-12-18T13:05:25;10.43;;;7.30;;
11854;SDS011;5987;53.140;8.904;2022-12-18T13:08:51;10.30;;;7.03;;
11854;SDS011;5987;53.140;8.904;2022-12-18T13:12:03;11.97;;;7.40;;
11854;SDS011;5987;53.140;8.904;2022-12-18T13:16:03;12.17;;;7.83;;
11854;SDS011;5987;53.140;8.904;2022-12-18T13:19:18;14.33;;;8.30;;
11854;SDS011;5987;53.140;8.904;2022-12-18T13:22:28;12.60;;;7.87;;
11854;SDS011;5987;53.140;8.904;2022-12-18T13:25:38;13.53;;;7.80;;
11854;SDS011;5987;53.140;8.904;2022-12-18T13:28:53;13.03;;;7.87;;
11854;SDS011;5987;53.140;8.904;2022-12-18T13:31:59;12.73;;;8.13;;
11854;SDS011;5987;53.140;8.904;2022-12-18T13:38:44;14.03;;;8.27;;
11854;SDS011;5987;53.140;8.904;2022-12-18T13:41:50;16.03;;;10.10;;
11854;SDS011;5987;53.140;8.904;2022-12-18T13:44:57;13.30;;;8.83;;
11854;SDS011;5987;53.140;8.904;2022-12-18T13:48:01;12.93;;;7.40;;
11854;SDS011;5987;53.140;8.904;2022-12-18T13:51:08;11.63;;;7.60;;
11854;SDS011;5987;53.140;8.904;2022-12-18T13:54:17;9.73;;;7.13;;
11854;SDS011;5987;53.140;8.904;2022-12-18T13:57:26;12.93;;;8.40;;
11854;SDS011;5987;53.140;8.904;2022-12-18T14:00:33;16.53;;;10.87;;
11854;SDS011;5987;53.140;8.904;2022-12-18T14:03:38;22.33;;;16.40;;
11854;SDS011;5987;53.140;8.904;2022-12-18T14:06:43;15.20;;;9.70;;
11854;SDS011;5987;53.140;8.904;2022-12-18T14:09:50;14.73;;;8.07;;
11854;SDS011;5987;53.140;8.904;2022-12-18T14:13:23;13.53;;;9.00;;
11854;SDS011;5987;53.140;8.904;2022-12-18T14:16:33;13.37;;;7.97;;
11854;SDS011;5987;53.140;8.904;2022-12-18T14:19:40;12.23;;;7.80;;
11854;SDS011;5987;53.140;8.904;2022-12-18T14:22:48;14.27;;;8.57;;
11854;SDS011;5987;53.140;8.904;2022-12-18T14:25:52;12.87;;;8.30;;
11854;SDS011;5987;53.140;8.904;2022-12-18T14:28:59;11.53;;;7.30;;
11854;SDS011;5987;53.140;8.904;2022-12-18T14:32:23;19.27;;;9.50;;
11854;SDS011;5987;53.140;8.904;2022-12-18T14:35:27;14.57;;;11.60;;
11854;SDS011;5987;53.140;8.904;2022-12-18T14:38:32;16.53;;;10.13;;
11854;SDS011;5987;53.140;8.904;2022-12-18T14:41:38;14.53;;;10.17;;
11854;SDS011;5987;53.140;8.904;2022-12-18T14:44:43;12.53;;;9.10;;
11854;SDS011;5987;53.140;8.904;2022-12-18T14:48:11;13.10;;;10.13;;
11854;SDS011;5987;53.140;8.904;2022-12-18T14:51:24;15.70;;;11.97;;
11854;SDS011;5987;53.140;8.904;2022-12-18T14:54:29;14.40;;;11.53;;
11854;SDS011;5987;53.140;8.904;2022-12-18T14:57:35;18.27;;;12.70;;
11854;SDS011;5987;53.140;8.904;2022-12-18T15:00:42;11.07;;;8.30;;
11854;SDS011;5987;53.140;8.904;2022-12-18T15:03:48;11.73;;;8.30;;
11854;SDS011;5987;53.140;8.904;2022-12-18T15:07:08;14.00;;;7.97;;
11854;SDS011;5987;53.140;8.904;2022-12-18T15:10:19;11.80;;;8.60;;
11854;SDS011;5987;53.140;8.904;2022-12-18T15:13:25;13.63;;;8.57;;
11854;SDS011;5987;53.140;8.904;2022-12-18T15:16:30;16.10;;;9.77;;
11854;SDS011;5987;53.140;8.904;2022-12-18T15:19:37;11.50;;;7.40;;
11854;SDS011;5987;53.140;8.904;2022-12-18T15:22:44;13.40;;;9.07;;
11854;SDS011;5987;53.140;8.904;2022-12-18T15:25:54;16.13;;;10.07;;
11854;SDS011;5987;53.140;8.904;2022-12-18T15:29:00;16.43;;;7.60;;
11854;SDS011;5987;53.140;8.904;2022-12-18T15:32:05;12.20;;;8.73;;
11854;SDS011;5987;53.140;8.904;2022-12-18T15:35:26;12.63;;;7.00;;
11854;SDS011;5987;53.140;8.904;2022-12-18T15:38:30;13.57;;;8.40;;
11854;SDS011;5987;53.140;8.904;2022-12-18T15:41:35;12.97;;;7.60;;
11854;SDS011;5987;53.140;8.904;2022-12-18T15:44:39;10.73;;;6.63;;
11854;SDS011;5987;53.140;8.904;2022-12-18T15:47:43;13.70;;;6.67;;
11854;SDS011;5987;53.140;8.904;2022-12-18T15:50:49;10.27;;;6.00;;
11854;SDS011;5987;53.140;8.904;2022-12-18T15:53:55;8.97;;;6.17;;
11854;SDS011;5987;53.140;8.904;2022-12-18T15:57:03;14.37;;;9.03;;
11854;SDS011;5987;53.140;8.904;2022-12-18T16:00:24;14.60;;;11.43;;
11854;SDS011;5987;53.140;8.904;2022-12-18T16:03:28;22.47;;;14.90;;
11854;SDS011;5987;53.140;8.904;2022-12-18T16:06:34;19.70;;;11.90;;
11854;SDS011;5987;53.140;8.904;2022-12-18T16:09:58;67.20;;;32.83;;
11854;SDS011;5987;53.140;8.904;2022-12-18T16:13:03;36.90;;;14.97;;
11854;SDS011;5987;53.140;8.904;2022-12-18T16:16:07;41.33;;;19.63;;
11854;SDS011;5987;53.140;8.904;2022-12-18T16:19:11;53.37;;;23.50;;
11854;SDS011;5987;53.140;8.904;2022-12-18T16:22:19;23.50;;;11.23;;
11854;SDS011;5987;53.140;8.904;2022-12-18T16:25:25;11.40;;;7.30;;
11854;SDS011;5987;53.140;8.904;2022-12-18T16:28:31;11.60;;;6.97;;
11854;SDS011;5987;53.140;8.904;2022-12-18T16:31:36;10.40;;;6.47;;
11854;SDS011;5987;53.140;8.904;2022-12-18T16:34:41;9.30;;;5.47;;
11854;SDS011;5987;53.140;8.904;2022-12-18T16:37:48;10.67;;;6.43;;
11854;SDS011;5987;53.140;8.904;2022-12-18T16:40:52;8.13;;;5.90;;
11854;SDS011;5987;53.140;8.904;2022-12-18T16:44:13;9.37;;;6.00;;
11854;SDS011;5987;53.140;8.904;2022-12-18T16:47:17;14.57;;;8.40;;
11854;SDS011;5987;53.140;8.904;2022-12-18T16:50:22;7.97;;;5.63;;
11854;SDS011;5987;53.140;8.904;2022-12-18T16:53:27;13.67;;;6.77;;
11854;SDS011;5987;53.140;8.904;2022-12-18T16:56:32;12.67;;;7.60;;
11854;SDS011;5987;53.140;8.904;2022-12-18T16:59:36;10.27;;;7.47;;
11854;SDS011;5987;53.140;8.904;2022-12-18T17:02:40;11.27;;;6.70;;
11854;SDS011;5987;53.140;8.904;2022-12-18T17:05:45;17.90;;;12.67;;
11854;SDS011;5987;53.140;8.904;2022-12-18T17:08:55;11.87;;;7.63;;
11854;SDS011;5987;53.140;8.904;2022-12-18T17:12:03;10.40;;;6.40;;
11854;SDS011;5987;53.140;8.904;2022-12-18T17:15:08;11.07;;;7.03;;
11854;SDS011;5987;53.140;8.904;2022-12-18T17:18:13;9.03;;;7.00;;
11854;SDS011;5987;53.140;8.904;2022-12-18T17:21:17;10.83;;;8.10;;
11854;SDS011;5987;53.140;8.904;2022-12-18T17:24:23;10.37;;;6.70;;
11854;SDS011;5987;53.140;8.904;2022-12-18T17:27:34;10.70;;;6.10;;
11854;SDS011;5987;53.140;8.904;2022-12-18T17:30:38;13.37;;;7.70;;
11854;SDS011;5987;53.140;8.904;2022-12-18T17:33:44;11.33;;;7.43;;
11854;SDS011;5987;53.140;8.904;2022-12-18T17:36:49;12.50;;;7.40;;
11854;SDS011;5987;53.140;8.904;2022-12-18T17:39:54;10.87;;;5.73;;
11854;SDS011;5987;53.140;8.904;2022-12-18T17:42:57;13.53;;;7.60;;
11854;SDS011;5987;53.140;8.904;2022-12-18T17:46:02;10.20;;;7.43;;
11854;SDS011;5987;53.140;8.904;2022-12-18T17:49:09;18.70;;;14.03;;
11854;SDS011;5987;53.140;8.904;2022-12-18T17:52:14;15.30;;;10.20;;
11854;SDS011;5987;53.140;8.904;2022-12-18T17:55:19;12.10;;;7.80;;
11854;SDS011;5987;53.140;8.904;2022-12-18T17:58:24;12.33;;;9.13;;
11854;SDS011;5987;53.140;8.904;2022-12-18T18:01:27;16.77;;;10.83;;
11854;SDS011;5987;53.140;8.904;2022-12-18T18:04:31;12.10;;;8.27;;
11854;SDS011;5987;53.140;8.904;2022-12-18T18:07:35;15.77;;;10.30;;
11854;SDS011;5987;53.140;8.904;2022-12-18T18:10:43;20.17;;;13.33;;
11854;SDS011;5987;53.140;8.904;2022-12-18T18:13:49;21.97;;;13.47;;
11854;SDS011;5987;53.140;8.904;2022-12-18T18:17:02;15.83;;;8.17;;
11854;SDS011;5987;53.140;8.904;2022-12-18T18:20:06;16.43;;;9.30;;
11854;SDS011;5987;53.140;8.904;2022-12-18T18:23:10;15.10;;;9.57;;
11854;SDS011;5987;53.140;8.904;2022-12-18T18:26:16;19.70;;;11.73;;
11854;SDS011;5987;53.140;8.904;2022-12-18T18:29:21;14.17;;;9.17;;
11854;SDS011;5987;53.140;8.904;2022-12-18T18:32:29;17.73;;;10.10;;
11854;SDS011;5987;53.140;8.904;2022-12-18T18:35:33;17.27;;;11.20;;
11854;SDS011;5987;53.140;8.904;2022-12-18T18:38:57;17.37;;;8.60;;
11854;SDS011;5987;53.140;8.904;2022-12-18T18:42:04;23.20;;;11.40;;
11854;SDS011;5987;53.140;8.904;2022-12-18T18:45:08;15.63;;;10.40;;
11854;SDS011;5987;53.140;8.904;2022-12-18T18:48:12;73.67;;;34.63;;
11854;SDS011;5987;53.140;8.904;2022-12-18T18:51:17;14.80;;;9.23;;